createdAt,value
2018-12-08T00:00:24.924Z,5.70
2018-12-08T00:03:31.138Z,5.70
2018-12-08T00:06:37.439Z,5.70
2018-12-08T00:09:43.755Z,5.70
2018-12-08T00:12:49.870Z,5.70
2018-12-08T00:15:56.010Z,5.70
2018-12-08T00:19:02.100Z,5.60
2018-12-08T00:22:08.181Z,5.60
2018-12-08T00:25:14.559Z,5.60
2018-12-08T00:28:20.638Z,5.60
2018-12-08T00:31:37.956Z,5.50
2018-12-08T00:34:44.390Z,5.50
2018-12-08T00:37:50.721Z,5.50
2018-12-08T00:40:56.879Z,5.50
2018-12-08T00:44:03.135Z,5.50
2018-12-08T00:47:09.199Z,5.50
2018-12-08T00:50:15.359Z,5.50
2018-12-08T00:53:21.521Z,5.50
2018-12-08T00:56:27.642Z,5.50
2018-12-08T00:59:33.757Z,5.50
2018-12-08T01:02:40.016Z,5.50
2018-12-08T01:05:46.153Z,5.60
2018-12-08T01:08:52.319Z,5.50
2018-12-08T01:11:58.402Z,5.50
2018-12-08T01:15:05.515Z,5.50
2018-12-08T01:18:12.477Z,5.50
2018-12-08T01:21:18.614Z,5.50
2018-12-08T01:24:24.751Z,5.30
2018-12-08T01:27:30.834Z,5.20
2018-12-08T01:30:36.952Z,5.00
2018-12-08T01:33:43.872Z,5.00
2018-12-08T01:36:50.030Z,5.00
2018-12-08T01:39:56.141Z,4.90
2018-12-08T01:43:02.293Z,4.90
2018-12-08T01:46:08.464Z,4.80
2018-12-08T01:49:14.754Z,4.80
2018-12-08T01:52:21.235Z,4.70
2018-12-08T01:55:27.453Z,4.50
2018-12-08T01:58:33.712Z,4.40
2018-12-08T02:01:40.517Z,4.40
2018-12-08T02:04:46.626Z,4.30
2018-12-08T02:07:52.806Z,4.30
2018-12-08T02:10:59.055Z,4.30
2018-12-08T02:14:05.355Z,4.30
2018-12-08T02:17:12.399Z,4.40
2018-12-08T02:20:18.637Z,4.40
2018-12-08T02:23:24.789Z,4.50
2018-12-08T02:26:31.015Z,4.50
2018-12-08T02:29:37.122Z,4.50
2018-12-08T02:32:43.479Z,4.50
2018-12-08T02:35:49.861Z,4.50
2018-12-08T02:38:55.958Z,4.50
2018-12-08T02:42:02.076Z,4.50
2018-12-08T02:45:08.380Z,4.60
2018-12-08T02:48:14.525Z,4.60
2018-12-08T02:51:20.677Z,4.60
2018-12-08T02:54:27.436Z,4.60
2018-12-08T02:57:33.749Z,4.50
2018-12-08T03:00:40.093Z,4.60
2018-12-08T03:03:46.245Z,4.50
2018-12-08T03:06:52.398Z,4.50
2018-12-08T03:09:58.656Z,4.50
2018-12-08T03:13:04.885Z,4.60
2018-12-08T03:16:11.185Z,4.80
2018-12-08T03:19:17.513Z,4.80
2018-12-08T03:22:23.599Z,4.90
2018-12-08T03:25:29.684Z,5.00
2018-12-08T03:28:35.766Z,5.00
2018-12-08T03:31:42.406Z,5.10
2018-12-08T03:34:48.594Z,5.10
2018-12-08T03:37:54.791Z,5.10
2018-12-08T03:41:00.899Z,5.30
2018-12-08T03:44:07.889Z,5.30
2018-12-08T03:47:14.023Z,5.30
2018-12-08T03:50:20.264Z,5.30
2018-12-08T03:53:26.471Z,5.40
2018-12-08T03:56:32.798Z,5.40
2018-12-08T03:59:38.971Z,5.40
2018-12-08T04:02:45.081Z,5.40
2018-12-08T04:05:51.589Z,5.50
2018-12-08T04:08:57.708Z,5.40
2018-12-08T04:12:03.936Z,5.40
2018-12-08T04:15:10.117Z,5.40
2018-12-08T04:18:16.260Z,5.40
2018-12-08T04:21:22.337Z,5.30
2018-12-08T04:24:28.579Z,5.40
2018-12-08T04:27:34.644Z,5.40
2018-12-08T04:30:40.741Z,5.50
2018-12-08T04:33:46.804Z,5.50
2018-12-08T04:36:52.964Z,5.50
2018-12-08T04:39:59.057Z,5.40
2018-12-08T04:43:05.207Z,5.50
2018-12-08T04:46:11.356Z,5.40
2018-12-08T04:49:17.427Z,5.30
2018-12-08T04:52:23.560Z,5.20
2018-12-08T04:55:29.679Z,5.30
2018-12-08T04:58:35.838Z,5.20
2018-12-08T05:01:41.994Z,5.20
2018-12-08T05:04:48.262Z,5.20
2018-12-08T05:07:54.470Z,5.20
2018-12-08T05:11:00.574Z,5.10
2018-12-08T05:14:06.710Z,5.10
2018-12-08T05:17:12.927Z,5.10
2018-12-08T05:20:19.082Z,5.10
2018-12-08T05:23:25.186Z,5.10
2018-12-08T05:26:31.350Z,5.10
2018-12-08T05:29:37.462Z,5.20
2018-12-08T05:32:44.081Z,5.10
2018-12-08T05:35:50.173Z,5.10
2018-12-08T05:38:56.338Z,5.10
2018-12-08T05:42:02.462Z,5.10
2018-12-08T05:45:08.734Z,5.10
2018-12-08T05:48:14.901Z,5.10
2018-12-08T05:51:21.137Z,5.10
2018-12-08T05:54:27.314Z,5.10
2018-12-08T05:57:33.358Z,5.10
2018-12-08T06:00:39.494Z,5.20
2018-12-08T06:03:45.550Z,5.30
2018-12-08T06:06:51.638Z,5.30
2018-12-08T06:09:57.719Z,5.30
2018-12-08T06:13:03.831Z,5.40
2018-12-08T06:16:10.009Z,5.50
2018-12-08T06:19:16.050Z,5.50
2018-12-08T06:22:22.166Z,5.50
2018-12-08T06:25:33.104Z,5.50
2018-12-08T06:28:40.511Z,5.50
2018-12-08T06:31:46.597Z,5.50
2018-12-08T06:34:52.673Z,5.60
2018-12-08T06:37:58.850Z,5.50
2018-12-08T06:41:04.917Z,5.50
2018-12-08T06:44:11.498Z,5.50
2018-12-08T06:47:17.886Z,5.50
2018-12-08T06:50:24.005Z,5.40
2018-12-08T06:53:30.102Z,5.50
2018-12-08T06:56:36.248Z,5.50
2018-12-08T06:59:42.333Z,5.50
2018-12-08T07:02:48.451Z,5.50
2018-12-08T07:05:54.557Z,5.60
2018-12-08T07:09:00.652Z,5.60
2018-12-08T07:12:06.769Z,5.70
2018-12-08T07:15:13.532Z,5.70
2018-12-08T07:18:19.634Z,5.70
2018-12-08T07:21:25.833Z,5.70
2018-12-08T07:24:32.069Z,5.70
2018-12-08T07:27:38.121Z,5.80
2018-12-08T07:30:44.883Z,5.70
2018-12-08T07:33:50.975Z,5.70
2018-12-08T07:36:57.147Z,5.70
2018-12-08T07:40:03.614Z,5.70
2018-12-08T07:43:09.702Z,5.70
2018-12-08T07:46:15.791Z,5.70
2018-12-08T07:49:21.934Z,5.80
2018-12-08T07:52:28.050Z,5.80
2018-12-08T07:55:34.315Z,6.00
2018-12-08T07:58:41.507Z,6.00
2018-12-08T08:01:47.956Z,5.90
2018-12-08T08:04:54.347Z,5.80
2018-12-08T08:08:00.624Z,5.80
2018-12-08T08:11:06.832Z,5.80
2018-12-08T08:14:13.521Z,5.90
2018-12-08T08:17:19.691Z,5.90
2018-12-08T08:20:25.831Z,5.90
2018-12-08T08:23:32.089Z,6.00
2018-12-08T08:26:38.397Z,5.90
2018-12-08T08:29:45.272Z,6.00
2018-12-08T08:32:51.844Z,6.00
2018-12-08T08:35:58.015Z,6.00
2018-12-08T08:39:07.522Z,6.00
2018-12-08T08:42:14.133Z,6.00
2018-12-08T08:45:20.334Z,6.20
2018-12-08T08:48:26.605Z,6.20
2018-12-08T08:51:32.774Z,6.10
2018-12-08T08:54:39.694Z,6.00
2018-12-08T08:57:45.818Z,6.00
2018-12-08T09:00:52.269Z,6.00
2018-12-08T09:03:58.734Z,6.00
2018-12-08T09:07:04.890Z,6.00
2018-12-08T09:10:12.089Z,6.00
2018-12-08T09:13:18.401Z,6.10
2018-12-08T09:16:24.609Z,6.20
2018-12-08T09:19:30.769Z,6.30
2018-12-08T09:22:37.086Z,6.40
2018-12-08T09:25:44.001Z,6.60
2018-12-08T09:28:50.255Z,6.70
2018-12-08T09:31:56.524Z,7.00
2018-12-08T09:35:02.838Z,6.90
2018-12-08T09:38:09.850Z,6.80
2018-12-08T09:41:16.142Z,6.70
2018-12-08T09:44:22.365Z,6.60
2018-12-08T09:47:28.784Z,6.50
2018-12-08T09:50:35.031Z,6.50
2018-12-08T09:53:41.857Z,6.40
2018-12-08T09:56:48.062Z,6.50
2018-12-08T09:59:54.289Z,6.60
2018-12-08T10:03:00.514Z,6.50
2018-12-08T10:06:06.853Z,6.50
2018-12-08T10:09:13.831Z,6.50
2018-12-08T10:12:20.070Z,6.50
2018-12-08T10:15:26.715Z,6.50
2018-12-08T10:18:32.921Z,6.60
2018-12-08T10:21:39.178Z,6.60
2018-12-08T10:24:46.337Z,6.50
2018-12-08T10:27:52.508Z,6.40
2018-12-08T10:30:58.738Z,6.30
2018-12-08T10:34:04.963Z,6.20
2018-12-08T10:37:11.147Z,6.10
2018-12-08T10:40:17.355Z,6.10
2018-12-08T10:43:23.571Z,6.10
2018-12-08T10:46:29.804Z,6.00
2018-12-08T10:49:36.237Z,6.10
2018-12-08T10:52:42.397Z,6.20
2018-12-08T10:55:48.633Z,6.20
2018-12-08T10:58:54.762Z,6.40
2018-12-08T11:02:03.415Z,6.50
2018-12-08T11:05:09.563Z,6.60
2018-12-08T11:08:15.777Z,6.60
2018-12-08T11:11:22.011Z,6.70
2018-12-08T11:14:28.236Z,6.70
2018-12-08T11:17:34.473Z,6.80
2018-12-08T11:20:40.895Z,6.80
2018-12-08T11:23:47.404Z,6.90
2018-12-08T11:26:53.721Z,7.00
2018-12-08T11:30:00.039Z,7.00
2018-12-08T11:33:06.381Z,6.90
2018-12-08T11:36:12.738Z,6.90
2018-12-08T11:39:18.955Z,6.90
2018-12-08T11:42:25.341Z,6.80
2018-12-08T11:45:38.182Z,6.80
2018-12-08T11:48:44.646Z,6.90
2018-12-08T11:51:51.059Z,7.00
2018-12-08T11:54:57.363Z,7.00
2018-12-08T11:58:03.945Z,7.00
2018-12-08T12:01:10.190Z,7.00
2018-12-08T12:04:16.847Z,6.90
2018-12-08T12:07:23.158Z,6.80
2018-12-08T12:10:29.421Z,6.70
2018-12-08T12:13:35.814Z,6.70
2018-12-08T12:16:42.200Z,6.80
2018-12-08T12:19:48.416Z,6.70
2018-12-08T12:22:54.662Z,6.70
2018-12-08T12:26:01.233Z,6.70
2018-12-08T12:29:07.436Z,6.80
2018-12-08T12:32:13.968Z,6.80
2018-12-08T12:35:20.229Z,6.90
2018-12-08T12:38:26.748Z,6.90
2018-12-08T12:41:33.016Z,6.90
2018-12-08T12:44:39.247Z,7.00
2018-12-08T12:47:45.525Z,6.90
2018-12-08T12:50:51.731Z,6.90
2018-12-08T12:53:58.417Z,6.80
2018-12-08T12:57:04.627Z,6.70
2018-12-08T13:00:13.581Z,6.60
2018-12-08T13:03:19.758Z,6.60
2018-12-08T13:06:26.083Z,6.50
2018-12-08T13:09:32.275Z,6.40
2018-12-08T13:12:38.897Z,6.40
2018-12-08T13:15:45.343Z,6.50
2018-12-08T13:18:51.433Z,6.50
2018-12-08T13:21:57.675Z,6.50
2018-12-08T13:25:30.465Z,6.40
2018-12-08T13:28:36.663Z,6.30
2018-12-08T13:31:48.763Z,6.40
2018-12-08T13:34:55.066Z,6.50
2018-12-08T13:38:01.334Z,6.50
2018-12-08T13:41:07.482Z,6.50
2018-12-08T13:44:53.886Z,6.50
2018-12-08T13:48:00.024Z,6.50
2018-12-08T13:51:06.406Z,6.60
2018-12-08T13:54:22.758Z,6.50
2018-12-08T13:57:28.986Z,6.60
2018-12-08T14:00:35.423Z,6.60
2018-12-08T14:03:42.357Z,6.60
2018-12-08T14:06:48.651Z,6.60
2018-12-08T14:09:55.056Z,6.70
2018-12-08T14:13:01.525Z,6.70
2018-12-08T14:16:08.159Z,6.80
2018-12-08T14:19:14.405Z,6.80
2018-12-08T14:22:20.651Z,6.80
2018-12-08T14:25:26.806Z,6.90
2018-12-08T14:28:33.221Z,6.80
2018-12-08T14:31:40.392Z,6.90
2018-12-08T14:34:46.554Z,6.90
2018-12-08T14:37:53.336Z,6.90
2018-12-08T14:40:59.601Z,6.90
2018-12-08T14:44:05.873Z,7.00
2018-12-08T14:47:12.898Z,7.00
2018-12-08T14:50:19.496Z,7.00
2018-12-08T14:53:25.934Z,7.00
2018-12-08T14:56:32.420Z,7.00
2018-12-08T14:59:39.221Z,7.00
2018-12-08T15:02:45.527Z,7.00
2018-12-08T15:05:51.790Z,7.00
2018-12-08T15:08:58.204Z,7.10
2018-12-08T15:12:04.728Z,7.00
2018-12-08T15:15:11.416Z,7.10
2018-12-08T15:18:18.085Z,7.10
2018-12-08T15:21:24.373Z,7.10
2018-12-08T15:24:31.002Z,7.00
2018-12-08T15:27:37.842Z,7.10
2018-12-08T15:30:44.234Z,7.00
2018-12-08T15:33:50.979Z,7.00
2018-12-08T15:36:57.308Z,6.90
2018-12-08T15:40:03.920Z,6.80
2018-12-08T15:43:11.049Z,6.90
2018-12-08T15:46:17.542Z,6.90
2018-12-08T15:49:23.884Z,6.80
2018-12-08T15:52:30.108Z,6.80
2018-12-08T15:55:36.518Z,6.70
2018-12-08T15:58:43.526Z,6.70
2018-12-08T16:01:50.145Z,6.60
2018-12-08T16:04:56.448Z,6.70
2018-12-08T16:08:02.885Z,6.70
2018-12-08T16:11:09.220Z,6.70
2018-12-08T16:14:16.360Z,6.70
2018-12-08T16:17:23.058Z,6.70
2018-12-08T16:20:29.443Z,6.70
2018-12-08T16:23:36.780Z,6.70
2018-12-08T16:26:43.037Z,6.70
2018-12-08T16:29:50.077Z,6.70
2018-12-08T16:32:56.298Z,6.80
2018-12-08T16:36:02.874Z,6.80
2018-12-08T16:39:09.622Z,6.80
2018-12-08T16:42:15.996Z,6.70
2018-12-08T16:45:22.365Z,6.60
2018-12-08T16:48:28.563Z,6.60
2018-12-08T16:51:34.810Z,6.60
2018-12-08T16:54:41.210Z,6.60
2018-12-08T16:57:47.398Z,6.60
2018-12-08T17:00:53.575Z,6.50
2018-12-08T17:03:59.777Z,6.50
2018-12-08T17:07:06.239Z,6.50
2018-12-08T17:10:12.490Z,6.50
2018-12-08T17:13:18.642Z,6.50
2018-12-08T17:16:24.954Z,6.50
2018-12-08T17:19:31.227Z,6.50
2018-12-08T17:22:37.431Z,6.50
2018-12-08T17:25:43.761Z,6.50
2018-12-08T17:28:50.065Z,6.50
2018-12-08T17:31:56.330Z,6.50
2018-12-08T17:35:02.778Z,6.50
2018-12-08T17:38:09.717Z,6.40
2018-12-08T17:41:15.989Z,6.40
2018-12-08T17:44:22.748Z,6.40
2018-12-08T17:47:29.050Z,6.40
2018-12-08T17:50:35.316Z,6.40
2018-12-08T17:53:42.337Z,6.40
2018-12-08T17:56:48.596Z,6.50
2018-12-08T17:59:54.858Z,6.50
2018-12-08T18:03:01.403Z,6.50
2018-12-08T18:06:07.905Z,6.60
2018-12-08T18:09:15.114Z,6.50
2018-12-08T18:12:21.405Z,6.40
2018-12-08T18:15:27.759Z,6.50
2018-12-08T18:18:33.880Z,6.50
2018-12-08T18:21:40.187Z,6.60
2018-12-08T18:24:47.414Z,6.60
2018-12-08T18:27:53.891Z,6.60
2018-12-08T18:31:00.110Z,6.70
2018-12-08T18:34:06.413Z,6.60
2018-12-08T18:37:12.640Z,6.50
2018-12-08T18:40:18.798Z,6.40
2018-12-08T18:43:25.046Z,6.40
2018-12-08T18:46:31.276Z,6.40
2018-12-08T18:49:37.573Z,6.40
2018-12-08T18:52:44.210Z,6.40
2018-12-08T18:55:50.589Z,6.40
2018-12-08T18:58:56.783Z,6.30
2018-12-08T19:02:03.188Z,6.40
2018-12-08T19:05:09.670Z,6.30
2018-12-08T19:08:16.500Z,6.30
2018-12-08T19:11:23.107Z,6.40
2018-12-08T19:14:29.276Z,6.50
2018-12-08T19:17:35.675Z,6.50
2018-12-08T19:20:42.013Z,6.50
2018-12-08T19:23:48.609Z,6.60
2018-12-08T19:26:54.944Z,6.60
2018-12-08T19:30:01.334Z,6.70
2018-12-08T19:33:14.320Z,6.70
2018-12-08T19:36:16.459Z,6.70
2018-12-08T19:39:22.766Z,6.70
2018-12-08T19:42:29.023Z,6.70
2018-12-08T19:45:35.378Z,6.70
2018-12-08T19:48:42.764Z,6.80
2018-12-08T19:51:48.926Z,6.70
2018-12-08T19:54:55.128Z,6.70
2018-12-08T19:58:01.379Z,6.70
2018-12-08T20:01:07.606Z,6.60
2018-12-08T20:04:15.034Z,6.60
2018-12-08T20:07:21.399Z,6.60
2018-12-08T20:10:27.738Z,6.60
2018-12-08T20:13:34.069Z,6.60
2018-12-08T20:16:40.227Z,6.70
2018-12-08T20:19:47.181Z,6.80
2018-12-08T20:22:53.690Z,6.80
2018-12-08T20:25:59.935Z,6.90
2018-12-08T20:29:06.709Z,7.00
2018-12-08T20:32:13.180Z,7.00
2018-12-08T20:35:20.572Z,7.00
2018-12-08T20:38:27.078Z,7.00
2018-12-08T20:41:33.468Z,7.10
2018-12-08T20:44:39.772Z,7.10
2018-12-08T20:47:46.081Z,7.20
2018-12-08T20:50:52.382Z,7.20
2018-12-08T20:53:58.573Z,7.20
2018-12-08T20:57:05.076Z,7.30
2018-12-08T21:00:11.413Z,7.40
2018-12-08T21:03:17.657Z,7.30
2018-12-08T21:06:24.884Z,7.30
2018-12-08T21:09:31.150Z,7.30
2018-12-08T21:12:37.415Z,7.40
2018-12-08T21:15:43.791Z,7.40
2018-12-08T21:18:49.979Z,7.50
2018-12-08T21:21:57.125Z,7.40
2018-12-08T21:25:04.226Z,7.40
2018-12-08T21:28:10.416Z,7.30
2018-12-08T21:31:16.755Z,7.30
2018-12-08T21:34:24.011Z,7.20
2018-12-08T21:37:30.225Z,7.20
2018-12-08T21:40:36.416Z,7.20
2018-12-08T21:43:42.777Z,7.10
2018-12-08T21:46:48.916Z,7.00
2018-12-08T21:49:55.042Z,7.00
2018-12-08T21:53:01.482Z,7.00
2018-12-08T21:56:07.625Z,7.00
2018-12-08T21:59:13.895Z,7.00
2018-12-08T22:02:20.109Z,7.00
2018-12-08T22:05:26.407Z,7.10
2018-12-08T22:08:32.685Z,7.10
2018-12-08T22:11:39.048Z,7.10
2018-12-08T22:14:51.010Z,7.10
2018-12-08T22:17:57.587Z,7.10
2018-12-08T22:21:03.795Z,7.20
2018-12-08T22:24:09.942Z,7.20
2018-12-08T22:27:16.236Z,7.30
2018-12-08T22:30:22.526Z,7.30
2018-12-08T22:33:29.257Z,7.40
2018-12-08T22:36:35.343Z,7.40
2018-12-08T22:39:41.459Z,7.50
2018-12-08T22:42:47.663Z,7.50
2018-12-08T22:45:53.928Z,7.50
2018-12-08T22:49:00.801Z,7.60
2018-12-08T22:52:07.088Z,7.60
2018-12-08T22:55:13.249Z,7.50
2018-12-08T22:58:19.671Z,7.60
2018-12-08T23:01:26.041Z,7.60
2018-12-08T23:04:32.295Z,7.70
2018-12-08T23:07:38.468Z,7.60
2018-12-08T23:10:44.752Z,7.60
2018-12-08T23:13:51.082Z,7.70
2018-12-08T23:16:57.263Z,7.70
2018-12-08T23:20:03.661Z,7.80
2018-12-08T23:23:09.857Z,7.90
2018-12-08T23:26:16.033Z,7.90
2018-12-08T23:29:22.215Z,7.90
2018-12-08T23:32:29.020Z,7.90
2018-12-08T23:35:35.313Z,8.00
2018-12-08T23:38:41.380Z,7.90
2018-12-08T23:41:47.627Z,8.00
2018-12-08T23:44:53.729Z,8.00
2018-12-08T23:48:00.714Z,8.00
2018-12-08T23:51:06.790Z,8.00
2018-12-08T23:54:12.917Z,8.10
2018-12-08T23:57:19.360Z,8.10
